Hlavní strana
METAR-TAF:

METAR-TAF

Letiště :

Šiauliai, Litva

zeměpisná šířka: 55-53-38N, zeměpisná délka: 023-23-42E, výška: 135 m

Aktuální stav počasí

Zpráva byla vytvořena před 43 minutami, v 23:20 UTC
Jižní vítr 2 kt
Teplota 6°C
Vlhkost vzduchu 93%
Tlak 1024 hPa
Viditelnost: 9000 m
Oblačno až skoro zataženo ve výšce 4100 ft
Zataženo ve výšce 5300 ft
kouřmo

METAR: EYSA 202320Z AUTO 18002KT 9000NDV BR BKN041 OVC053 06/05 Q1024

Čas: 03:03 (00:03 UTC)

Předpověď počasí

Zpráva byla vytvořena před 1 hodinou a 3 minutami, v 23:00 UTC
Předpověď platná od 21 v 00 UTC do 21 v 09 UTC
vítr z různých směrů 4 kt
Viditelnost: 0350 m
Zataženo ve výšce 200 ft
mlha
Dočasný
od 21 v 00 UTC do 21 v 02 UTC
Viditelnost: 3000 m
kouřmo
Změna
od 21 v 07 UTC do 21 v 08 UTC
Viditelnost: 8000 m
Oblačno až skoro zataženo ve výšce 2000 ft

TAF: EYSA 202300Z 2100/2109 VRB04KT 0350 FG OVC002 TEMPO 2100/2102 3000 BR BECMG 2107/2108 8000 BKN020

Stav a předpovědi počasí z více než 4 000 letišť (zprávy METAR a TAF).

Červené a žluté tečky na mapě představují dostupné meteorologické stanice.

Když kurzor umístíte na tečku, zobrazí se název stanice.

Pak kliknutím zobrazíte stav a předpověď počasí.

Chcete-li změnit mapu, kliknutím na zelené tlačítko se znaménkem +mapu přiblížíte, kliknutím na zelené tlačítko se znaménkem – mapu oddálíte a kliknutím na zelené šipky přejdete na sousední mapy.


METAR-TAF: